createdAt,value
2022-08-17T00:00:05.820Z,78.75
2022-08-17T00:02:56.310Z,78.77
2022-08-17T00:05:23.524Z,78.66
2022-08-17T00:07:50.608Z,78.75
2022-08-17T00:10:17.782Z,78.63
2022-08-17T00:12:44.912Z,78.58
2022-08-17T00:15:13.454Z,78.87
2022-08-17T00:17:42.852Z,78.80
2022-08-17T00:20:11.223Z,78.83
2022-08-17T00:22:38.310Z,78.84
2022-08-17T00:25:08.192Z,79.04
2022-08-17T00:27:35.723Z,79.15
2022-08-17T00:30:05.259Z,78.98
2022-08-17T00:33:12.248Z,79.15
2022-08-17T00:35:27.733Z,79.16
2022-08-17T00:37:55.489Z,79.25
2022-08-17T00:40:22.461Z,79.06
2022-08-17T00:42:52.692Z,79.30
2022-08-17T00:45:20.653Z,79.41
2022-08-17T00:47:47.922Z,79.29
2022-08-17T00:50:17.891Z,79.45
2022-08-17T00:52:53.810Z,79.43
2022-08-17T00:55:22.294Z,79.34
2022-08-17T00:57:55.169Z,79.40
2022-08-17T01:00:28.739Z,79.47
2022-08-17T01:03:02.589Z,79.58
2022-08-17T01:05:31.870Z,79.70
2022-08-17T01:08:02.705Z,79.62
2022-08-17T01:10:57.263Z,79.66
2022-08-17T01:13:24.539Z,79.57
2022-08-17T01:15:58.559Z,79.73
2022-08-17T01:18:26.341Z,79.71
2022-08-17T01:20:55.370Z,79.51
2022-08-17T01:23:25.078Z,79.72
2022-08-17T01:25:54.852Z,79.73
2022-08-17T01:28:33.246Z,79.72
2022-08-17T01:31:10.587Z,79.64
2022-08-17T01:33:37.719Z,79.71
2022-08-17T01:36:07.234Z,79.51
2022-08-17T01:38:35.692Z,79.90
2022-08-17T01:41:06.952Z,79.81
2022-08-17T01:43:45.348Z,79.78
2022-08-17T01:46:17.152Z,79.62
2022-08-17T01:48:47.496Z,79.74
2022-08-17T01:51:15.820Z,79.78
2022-08-17T01:53:47.836Z,79.79
2022-08-17T01:56:17.661Z,79.63
2022-08-17T01:58:45.024Z,79.75
2022-08-17T02:01:17.542Z,79.90
2022-08-17T02:03:59.209Z,79.82
2022-08-17T02:06:31.645Z,79.87
2022-08-17T02:09:16.492Z,79.83
2022-08-17T02:11:44.770Z,79.86
2022-08-17T02:14:13.572Z,79.95
2022-08-17T02:16:41.191Z,79.76
2022-08-17T02:19:14.202Z,79.88
2022-08-17T02:21:43.584Z,79.82
2022-08-17T02:24:13.050Z,79.90
2022-08-17T02:26:40.180Z,79.84
2022-08-17T02:29:07.344Z,79.85
2022-08-17T02:31:35.655Z,79.90
2022-08-17T02:34:05.021Z,79.85
2022-08-17T02:36:36.322Z,80.02
2022-08-17T02:39:06.192Z,80.09
2022-08-17T02:41:33.489Z,80.08
2022-08-17T02:46:28.410Z,80.17
2022-08-17T02:48:55.750Z,80.39
2022-08-17T02:51:22.782Z,80.23
2022-08-17T02:53:49.843Z,80.23
2022-08-17T02:56:16.790Z,80.23
2022-08-17T02:58:43.993Z,80.37
2022-08-17T03:01:11.045Z,80.17
2022-08-17T03:03:38.693Z,80.30
2022-08-17T03:06:07.649Z,80.37
2022-08-17T03:08:35.808Z,80.33
2022-08-17T03:11:02.721Z,80.25
2022-08-17T03:13:30.825Z,80.26
2022-08-17T03:15:58.518Z,80.35
2022-08-17T03:18:27.092Z,80.45
2022-08-17T03:20:59.460Z,80.34
2022-08-17T03:23:27.602Z,80.30
2022-08-17T03:25:57.220Z,80.53
2022-08-17T03:28:24.831Z,80.50
2022-08-17T03:30:52.238Z,80.53
2022-08-17T03:33:19.946Z,80.60
2022-08-17T03:35:47.136Z,80.60
2022-08-17T03:38:17.061Z,80.72
2022-08-17T03:40:57.287Z,80.75
2022-08-17T03:43:29.391Z,80.51
2022-08-17T03:46:28.690Z,80.66
2022-08-17T03:49:24.742Z,80.64
2022-08-17T03:52:10.713Z,80.56
2022-08-17T03:54:56.485Z,80.58
2022-08-17T03:57:23.712Z,80.55
2022-08-17T03:59:51.102Z,80.46
2022-08-17T04:02:22.012Z,80.44
2022-08-17T04:04:51.202Z,80.55
2022-08-17T04:07:20.810Z,80.56
2022-08-17T04:09:47.794Z,80.48
2022-08-17T04:12:19.120Z,80.44
2022-08-17T04:14:52.776Z,80.27
2022-08-17T04:17:25.237Z,80.41
2022-08-17T04:19:53.040Z,80.18
2022-08-17T04:22:33.265Z,80.33
2022-08-17T04:25:07.443Z,80.31
2022-08-17T04:27:34.549Z,80.11
2022-08-17T04:30:02.020Z,79.98
2022-08-17T04:33:04.215Z,79.89
2022-08-17T04:35:21.205Z,79.67
2022-08-17T04:37:48.509Z,79.27
2022-08-17T04:40:34.278Z,78.80
2022-08-17T04:43:22.113Z,78.17
2022-08-17T04:45:56.296Z,77.99
2022-08-17T04:48:36.308Z,77.62
2022-08-17T04:51:28.072Z,77.43
2022-08-17T04:54:07.820Z,77.04
2022-08-17T04:56:35.190Z,76.94
2022-08-17T04:59:05.949Z,76.68
2022-08-17T05:01:36.205Z,76.68
2022-08-17T05:04:21.011Z,76.16
2022-08-17T05:06:55.146Z,76.01
2022-08-17T05:09:22.123Z,75.97
2022-08-17T05:11:51.416Z,75.88
2022-08-17T05:14:18.401Z,75.54
2022-08-17T05:16:48.251Z,75.59
2022-08-17T05:19:15.271Z,75.51
2022-08-17T05:21:42.290Z,75.44
2022-08-17T05:24:12.834Z,75.40
2022-08-17T05:26:56.210Z,75.60
2022-08-17T05:29:23.121Z,75.56
2022-08-17T05:32:39.083Z,75.58
2022-08-17T05:35:01.819Z,75.58
2022-08-17T05:37:28.750Z,75.96
2022-08-17T05:39:55.863Z,75.73
2022-08-17T05:42:23.334Z,75.79
2022-08-17T05:44:50.247Z,75.73
2022-08-17T05:47:18.376Z,75.72
2022-08-17T05:49:45.561Z,75.67
2022-08-17T05:52:20.058Z,75.85
2022-08-17T05:55:10.131Z,75.64
2022-08-17T05:57:42.408Z,75.52
2022-08-17T06:00:19.301Z,75.69
2022-08-17T06:02:56.446Z,75.43
2022-08-17T06:05:29.540Z,75.22
2022-08-17T06:08:04.118Z,74.87
2022-08-17T06:10:34.000Z,74.91
2022-08-17T06:13:39.987Z,74.43
2022-08-17T06:16:31.160Z,74.17
2022-08-17T06:19:37.500Z,73.85
2022-08-17T06:22:05.898Z,73.56
2022-08-17T06:24:42.058Z,73.46
2022-08-17T06:27:39.929Z,73.05
2022-08-17T06:30:25.645Z,72.89
2022-08-17T06:32:55.260Z,72.54
2022-08-17T06:35:30.048Z,72.29
2022-08-17T06:38:37.607Z,71.79
2022-08-17T06:41:31.873Z,71.50
2022-08-17T06:44:49.647Z,70.85
2022-08-17T06:47:15.698Z,70.24
2022-08-17T06:50:01.139Z,69.79
2022-08-17T06:52:47.294Z,69.21
2022-08-17T06:55:24.019Z,68.94
2022-08-17T06:57:54.180Z,68.28
2022-08-17T07:00:24.210Z,68.19
2022-08-17T07:02:58.562Z,67.62
2022-08-17T07:05:38.711Z,67.24
2022-08-17T07:08:25.316Z,66.88
2022-08-17T07:10:57.544Z,66.18
2022-08-17T07:13:30.409Z,65.93
2022-08-17T07:16:05.028Z,65.52
2022-08-17T07:18:33.336Z,65.11
2022-08-17T07:21:15.482Z,65.07
2022-08-17T07:24:00.932Z,64.38
2022-08-17T07:26:28.659Z,64.24
2022-08-17T07:28:58.618Z,64.10
2022-08-17T07:31:26.640Z,64.02
2022-08-17T07:34:14.547Z,63.93
2022-08-17T07:36:42.761Z,63.21
2022-08-17T07:39:10.838Z,63.16
2022-08-17T07:41:57.536Z,62.65
2022-08-17T07:44:26.840Z,62.89
2022-08-17T07:47:12.733Z,62.72
2022-08-17T07:49:42.641Z,62.31
2022-08-17T07:52:50.524Z,61.66
2022-08-17T07:55:32.018Z,61.79
2022-08-17T07:58:00.204Z,61.51
2022-08-17T08:00:32.699Z,61.12
2022-08-17T08:03:04.408Z,60.72
2022-08-17T08:05:49.843Z,60.45
2022-08-17T08:08:23.299Z,60.23
2022-08-17T08:11:10.727Z,59.97
2022-08-17T08:13:43.876Z,59.49
2022-08-17T08:16:29.774Z,59.43
2022-08-17T08:19:01.729Z,59.01
2022-08-17T08:21:35.983Z,58.76
2022-08-17T08:24:21.671Z,58.54
2022-08-17T08:27:09.579Z,57.95
2022-08-17T08:29:45.611Z,58.16
2022-08-17T08:32:37.329Z,57.65
2022-08-17T08:35:23.000Z,57.50
2022-08-17T08:38:08.964Z,57.11
2022-08-17T08:41:13.059Z,57.02
2022-08-17T08:44:00.850Z,56.77
2022-08-17T08:46:27.947Z,56.35
2022-08-17T08:49:12.695Z,56.32
2022-08-17T08:51:46.239Z,56.23
2022-08-17T08:54:26.897Z,56.20
2022-08-17T08:57:24.179Z,55.73
2022-08-17T08:59:58.313Z,55.53
2022-08-17T09:02:47.271Z,55.43
2022-08-17T09:05:32.716Z,55.28
2022-08-17T09:08:08.896Z,55.14
2022-08-17T09:11:06.116Z,55.04
2022-08-17T09:13:54.317Z,54.91
2022-08-17T09:16:46.237Z,54.50
2022-08-17T09:19:19.599Z,54.53
2022-08-17T09:21:55.389Z,54.14
2022-08-17T09:24:33.966Z,54.25
2022-08-17T09:27:21.556Z,54.00
2022-08-17T09:29:52.117Z,53.70
2022-08-17T09:32:41.876Z,53.39
2022-08-17T09:35:32.924Z,53.39
2022-08-17T09:38:22.905Z,53.17
2022-08-17T09:41:16.198Z,53.01
2022-08-17T09:44:23.703Z,52.92
2022-08-17T09:46:56.145Z,52.66
2022-08-17T09:49:42.796Z,52.49
2022-08-17T09:52:24.436Z,52.56
2022-08-17T09:54:52.057Z,52.50
2022-08-17T09:57:37.569Z,52.38
2022-08-17T10:00:20.083Z,52.23
2022-08-17T10:03:34.317Z,52.07
2022-08-17T10:06:21.742Z,52.14
2022-08-17T10:09:03.707Z,51.96
2022-08-17T10:12:01.686Z,51.77
2022-08-17T10:15:07.827Z,51.83
2022-08-17T10:17:57.208Z,51.81
2022-08-17T10:20:39.954Z,52.03
2022-08-17T10:23:48.335Z,51.81
2022-08-17T10:26:20.842Z,51.75
2022-08-17T10:29:12.794Z,51.74
2022-08-17T10:31:45.608Z,51.74
2022-08-17T10:34:38.912Z,51.86
2022-08-17T10:37:30.174Z,51.75
2022-08-17T10:40:34.388Z,51.33
2022-08-17T10:43:41.828Z,51.25
2022-08-17T10:46:30.602Z,51.02
2022-08-17T10:49:17.226Z,50.90
2022-08-17T10:51:54.505Z,50.87
2022-08-17T10:54:24.516Z,50.90
2022-08-17T10:56:53.795Z,50.85
2022-08-17T10:59:39.386Z,50.76
2022-08-17T11:02:33.538Z,50.81
2022-08-17T11:05:00.447Z,50.73
2022-08-17T11:08:05.994Z,51.49
2022-08-17T11:10:38.678Z,52.26
2022-08-17T11:13:28.157Z,52.60
2022-08-17T11:16:12.491Z,52.94
2022-08-17T11:19:05.076Z,53.30
2022-08-17T11:21:38.644Z,53.79
2022-08-17T11:24:27.356Z,54.01
2022-08-17T11:27:19.986Z,54.28
2022-08-17T11:30:36.055Z,54.37
2022-08-17T11:33:29.127Z,54.67
2022-08-17T11:36:06.498Z,54.52
2022-08-17T11:39:03.755Z,54.62
2022-08-17T11:41:56.438Z,54.91
2022-08-17T11:44:37.775Z,54.70
2022-08-17T11:48:08.915Z,54.73
2022-08-17T11:51:21.934Z,55.00
2022-08-17T11:54:21.503Z,54.82
2022-08-17T11:56:50.563Z,55.03
2022-08-17T11:59:36.450Z,54.67
2022-08-17T12:02:29.927Z,54.54
2022-08-17T12:05:12.017Z,54.58
2022-08-17T12:07:45.387Z,54.27
2022-08-17T12:10:16.184Z,53.99
2022-08-17T12:12:45.444Z,54.15
2022-08-17T12:15:20.027Z,53.93
2022-08-17T12:17:54.562Z,53.56
2022-08-17T12:20:39.666Z,53.63
2022-08-17T12:23:21.833Z,53.47
2022-08-17T12:25:56.934Z,53.28
2022-08-17T12:28:23.935Z,53.14
2022-08-17T12:30:52.284Z,52.96
2022-08-17T12:33:25.619Z,52.82
2022-08-17T12:36:05.000Z,52.71
2022-08-17T12:38:36.096Z,52.69
2022-08-17T12:41:25.226Z,52.56
2022-08-17T12:44:03.393Z,52.39
2022-08-17T12:46:34.895Z,52.00
2022-08-17T12:49:26.431Z,51.89
2022-08-17T12:52:01.493Z,51.67
2022-08-17T12:54:50.194Z,51.61
2022-08-17T12:57:24.435Z,51.66
2022-08-17T12:59:58.943Z,51.43
2022-08-17T13:02:33.429Z,51.16
2022-08-17T13:05:01.374Z,50.93
2022-08-17T13:07:35.134Z,50.61
2022-08-17T13:10:03.025Z,50.61
2022-08-17T13:12:33.108Z,50.31
2022-08-17T13:15:00.358Z,50.32
2022-08-17T13:17:36.694Z,50.19
2022-08-17T13:20:05.959Z,49.93
2022-08-17T13:22:32.884Z,49.66
2022-08-17T13:25:05.336Z,49.46
2022-08-17T13:27:33.366Z,49.50
2022-08-17T13:30:05.616Z,49.25
2022-08-17T13:32:43.595Z,49.24
2022-08-17T13:35:41.393Z,49.12
2022-08-17T13:38:37.454Z,49.39
2022-08-17T13:41:07.075Z,49.35
2022-08-17T13:43:45.677Z,49.69
2022-08-17T13:46:19.777Z,49.45
2022-08-17T13:48:56.442Z,49.57
2022-08-17T13:51:27.537Z,49.73
2022-08-17T13:53:58.145Z,50.07
2022-08-17T13:56:49.372Z,50.17
2022-08-17T13:59:52.806Z,50.35
2022-08-17T14:02:20.818Z,50.31
2022-08-17T14:04:48.434Z,50.49
2022-08-17T14:07:16.124Z,50.48
2022-08-17T14:10:17.363Z,50.62
2022-08-17T14:12:45.083Z,50.46
2022-08-17T14:15:14.441Z,50.92
2022-08-17T14:17:41.454Z,50.90
2022-08-17T14:20:10.715Z,50.81
2022-08-17T14:22:40.074Z,51.08
2022-08-17T14:25:10.396Z,50.75
2022-08-17T14:27:47.097Z,50.91
2022-08-17T14:30:22.230Z,51.01
2022-08-17T14:32:51.665Z,50.79
2022-08-17T14:35:21.934Z,50.92
2022-08-17T14:37:49.566Z,51.00
2022-08-17T14:40:20.388Z,51.01
2022-08-17T14:42:47.606Z,51.12
2022-08-17T14:45:29.553Z,51.12
2022-08-17T14:48:04.571Z,50.87
2022-08-17T14:50:32.074Z,50.97
2022-08-17T14:53:03.871Z,51.06
2022-08-17T14:55:31.179Z,50.71
2022-08-17T14:57:58.363Z,50.97
2022-08-17T15:00:26.870Z,50.82
2022-08-17T15:02:55.648Z,50.75
2022-08-17T15:05:24.983Z,50.50
2022-08-17T15:07:55.816Z,50.66
2022-08-17T15:10:24.753Z,50.65
2022-08-17T15:12:52.919Z,50.63
2022-08-17T15:15:19.973Z,50.81
2022-08-17T15:17:46.826Z,50.76
2022-08-17T15:20:25.478Z,50.96
2022-08-17T15:22:56.246Z,51.28
2022-08-17T15:25:29.341Z,51.33
2022-08-17T15:27:56.478Z,51.39
2022-08-17T15:30:24.488Z,51.72
2022-08-17T15:32:55.153Z,52.06
2022-08-17T15:35:29.433Z,52.21
2022-08-17T15:38:06.303Z,52.43
2022-08-17T15:40:40.657Z,52.75
2022-08-17T15:43:12.477Z,52.47
2022-08-17T15:45:40.288Z,52.95
2022-08-17T15:48:07.609Z,52.79
2022-08-17T15:50:35.131Z,53.43
2022-08-17T15:53:03.429Z,53.49
2022-08-17T15:55:31.646Z,53.35
2022-08-17T15:57:58.924Z,53.81
2022-08-17T16:00:28.280Z,53.68
2022-08-17T16:03:47.108Z,53.74
2022-08-17T16:05:43.349Z,54.08
2022-08-17T16:08:11.205Z,54.11
2022-08-17T16:10:38.551Z,53.83
2022-08-17T16:13:05.878Z,54.10
2022-08-17T16:15:47.784Z,53.91
2022-08-17T16:18:23.789Z,53.74
2022-08-17T16:20:50.591Z,53.78
2022-08-17T16:23:20.231Z,53.80
2022-08-17T16:25:52.721Z,53.73
2022-08-17T16:28:20.678Z,54.11
2022-08-17T16:30:47.527Z,53.99
2022-08-17T16:33:16.622Z,54.34
2022-08-17T16:35:43.627Z,54.34
2022-08-17T16:38:10.899Z,54.15
2022-08-17T16:40:38.157Z,54.54
2022-08-17T16:43:10.505Z,54.45
2022-08-17T16:45:40.727Z,54.90
2022-08-17T16:48:08.744Z,54.59
2022-08-17T16:50:36.623Z,55.13
2022-08-17T16:53:10.507Z,54.90
2022-08-17T16:55:38.089Z,55.37
2022-08-17T16:58:05.822Z,55.54
2022-08-17T17:00:33.938Z,55.46
2022-08-17T17:03:17.767Z,55.57
2022-08-17T17:06:13.644Z,55.70
2022-08-17T17:08:57.988Z,55.66
2022-08-17T17:11:53.241Z,55.92
2022-08-17T17:14:33.580Z,56.36
2022-08-17T17:17:25.478Z,56.28
2022-08-17T17:19:57.629Z,56.63
2022-08-17T17:22:54.083Z,56.37
2022-08-17T17:25:28.001Z,56.52
2022-08-17T17:27:56.189Z,56.57
2022-08-17T17:31:04.139Z,56.63
2022-08-17T17:33:42.044Z,56.84
2022-08-17T17:36:27.442Z,56.72
2022-08-17T17:39:10.111Z,57.07
2022-08-17T17:41:56.685Z,57.21
2022-08-17T17:44:41.229Z,57.25
2022-08-17T17:47:08.341Z,57.42
2022-08-17T17:49:46.419Z,57.74
2022-08-17T17:52:19.638Z,57.70
2022-08-17T17:54:57.480Z,58.02
2022-08-17T17:57:30.177Z,58.19
2022-08-17T18:00:22.167Z,58.39
2022-08-17T18:03:18.317Z,58.67
2022-08-17T18:06:08.128Z,59.14
2022-08-17T18:08:49.466Z,59.12
2022-08-17T18:11:24.269Z,59.42
2022-08-17T18:14:29.281Z,59.87
2022-08-17T18:16:58.859Z,60.20
2022-08-17T18:19:28.174Z,60.57
2022-08-17T18:22:04.023Z,60.89
2022-08-17T18:24:43.582Z,60.94
2022-08-17T18:27:37.317Z,61.28
2022-08-17T18:30:28.846Z,61.63
2022-08-17T18:33:23.160Z,61.86
2022-08-17T18:35:58.745Z,62.00
2022-08-17T18:38:33.846Z,62.06
2022-08-17T18:41:02.206Z,62.42
2022-08-17T18:43:43.849Z,62.51
2022-08-17T18:46:35.040Z,62.67
2022-08-17T18:49:27.843Z,62.94
2022-08-17T18:52:13.401Z,63.23
2022-08-17T18:54:40.564Z,63.47
2022-08-17T18:57:10.826Z,63.38
2022-08-17T18:59:48.331Z,63.73
2022-08-17T19:02:28.372Z,63.97
2022-08-17T19:05:26.700Z,64.18
2022-08-17T19:07:53.718Z,64.33
2022-08-17T19:10:46.560Z,64.35
2022-08-17T19:13:23.904Z,64.79
2022-08-17T19:16:12.190Z,64.59
2022-08-17T19:19:06.530Z,64.78
2022-08-17T19:21:40.369Z,65.12
2022-08-17T19:24:19.612Z,65.28
2022-08-17T19:26:54.963Z,65.22
2022-08-17T19:29:31.862Z,65.53
2022-08-17T19:32:01.408Z,65.86
2022-08-17T19:34:34.016Z,65.64
2022-08-17T19:37:04.047Z,66.05
2022-08-17T19:39:49.245Z,66.25
2022-08-17T19:42:42.476Z,66.34
2022-08-17T19:45:19.709Z,66.62
2022-08-17T19:48:09.375Z,66.63
2022-08-17T19:50:57.787Z,67.05
2022-08-17T19:54:05.460Z,67.26
2022-08-17T19:57:21.528Z,67.49
2022-08-17T19:59:59.139Z,67.93
2022-08-17T20:02:42.022Z,67.97
2022-08-17T20:05:16.002Z,68.50
2022-08-17T20:07:59.263Z,68.31
2022-08-17T20:10:54.370Z,68.81
2022-08-17T20:13:49.088Z,68.82
2022-08-17T20:16:17.849Z,69.27
2022-08-17T20:19:30.689Z,69.48
2022-08-17T20:22:01.157Z,69.62
2022-08-17T20:24:48.233Z,70.11
2022-08-17T20:27:16.778Z,70.35
2022-08-17T20:29:55.456Z,70.68
2022-08-17T20:32:28.496Z,71.07
2022-08-17T20:35:21.525Z,71.41
2022-08-17T20:37:58.779Z,71.64
2022-08-17T20:40:28.805Z,72.04
2022-08-17T20:42:56.955Z,72.31
2022-08-17T20:45:26.370Z,72.51
2022-08-17T20:50:53.834Z,72.88
2022-08-17T20:53:53.552Z,73.22
2022-08-17T20:56:43.434Z,73.43
2022-08-17T20:59:30.759Z,73.61
2022-08-17T21:02:17.733Z,73.87
2022-08-17T21:05:00.244Z,73.98
2022-08-17T21:07:42.571Z,74.34
2022-08-17T21:10:31.010Z,74.50
2022-08-17T21:13:23.990Z,74.77
2022-08-17T21:16:10.768Z,75.05
2022-08-17T21:18:45.759Z,75.34
2022-08-17T21:21:21.630Z,75.55
2022-08-17T21:24:00.378Z,75.85
2022-08-17T21:26:50.610Z,76.08
2022-08-17T21:29:31.546Z,76.41
2022-08-17T21:31:59.709Z,76.20
2022-08-17T21:34:33.213Z,76.53
2022-08-17T21:37:19.136Z,76.53
2022-08-17T21:39:52.803Z,76.80
2022-08-17T21:42:34.603Z,76.72
2022-08-17T21:45:12.730Z,76.79
2022-08-17T21:47:43.461Z,76.99
2022-08-17T21:50:17.568Z,77.01
2022-08-17T21:52:44.660Z,76.89
2022-08-17T21:55:20.379Z,76.95
2022-08-17T21:57:52.784Z,76.92
2022-08-17T22:00:32.359Z,77.08
2022-08-17T22:03:01.699Z,77.08
2022-08-17T22:05:34.884Z,77.01
2022-08-17T22:08:09.277Z,77.05
2022-08-17T22:10:45.241Z,76.91
2022-08-17T22:13:21.538Z,77.00
2022-08-17T22:15:53.101Z,77.08
2022-08-17T22:18:25.676Z,77.05
2022-08-17T22:20:55.134Z,77.09
2022-08-17T22:23:47.449Z,77.15
2022-08-17T22:26:17.103Z,77.12
2022-08-17T22:29:00.530Z,77.16
2022-08-17T22:31:30.181Z,77.24
2022-08-17T22:34:00.051Z,77.28
2022-08-17T22:36:33.115Z,77.32
2022-08-17T22:39:12.251Z,77.21
2022-08-17T22:41:54.051Z,77.41
2022-08-17T22:44:27.442Z,77.35
2022-08-17T22:47:01.394Z,77.35
2022-08-17T22:49:38.850Z,77.28
2022-08-17T22:53:01.818Z,77.48
2022-08-17T22:55:49.344Z,77.55
2022-08-17T22:58:38.992Z,77.61
2022-08-17T23:01:39.147Z,77.58
2022-08-17T23:04:09.260Z,77.69
2022-08-17T23:06:38.025Z,77.68
2022-08-17T23:09:06.611Z,77.70
2022-08-17T23:11:49.089Z,77.79
2022-08-17T23:14:19.743Z,77.83
2022-08-17T23:16:47.723Z,77.85
2022-08-17T23:19:17.130Z,77.96
2022-08-17T23:21:48.780Z,77.96
2022-08-17T23:24:21.970Z,77.97
2022-08-17T23:26:49.377Z,78.08
2022-08-17T23:29:16.371Z,78.10
2022-08-17T23:31:43.364Z,78.08
2022-08-17T23:34:12.937Z,78.22
2022-08-17T23:36:40.107Z,78.16
2022-08-17T23:39:07.630Z,78.44
2022-08-17T23:41:37.459Z,78.42
2022-08-17T23:44:05.241Z,78.33
2022-08-17T23:46:32.850Z,78.43
2022-08-17T23:49:00.621Z,78.42
2022-08-17T23:51:34.653Z,78.55
2022-08-17T23:54:12.549Z,78.59
2022-08-17T23:56:51.419Z,78.63
2022-08-17T23:59:22.652Z,78.65
